createdAt,value
2022-10-15T00:00:18.520Z,15.27
2022-10-15T00:01:18.532Z,15.28
2022-10-15T00:02:18.528Z,15.23
2022-10-15T00:03:18.492Z,15.19
2022-10-15T00:04:18.484Z,15.25
2022-10-15T00:05:18.478Z,15.19
2022-10-15T00:06:18.477Z,15.14
2022-10-15T00:07:18.469Z,15.14
2022-10-15T00:08:18.443Z,15.14
2022-10-15T00:09:18.433Z,15.10
2022-10-15T00:10:18.448Z,15.03
2022-10-15T00:11:18.451Z,14.92
2022-10-15T00:12:18.399Z,15.03
2022-10-15T00:13:18.402Z,15.06
2022-10-15T00:14:18.415Z,15.03
2022-10-15T00:15:18.371Z,15.09
2022-10-15T00:16:18.373Z,15.01
2022-10-15T00:17:18.360Z,15.03
2022-10-15T00:18:18.352Z,14.94
2022-10-15T00:19:18.328Z,14.99
2022-10-15T00:20:18.314Z,14.98
2022-10-15T00:21:18.311Z,14.98
2022-10-15T00:22:18.332Z,14.95
2022-10-15T00:23:18.294Z,14.99
2022-10-15T00:24:18.291Z,15.01
2022-10-15T00:25:18.275Z,14.95
2022-10-15T00:26:18.272Z,14.94
2022-10-15T00:27:18.272Z,14.98
2022-10-15T00:28:18.299Z,14.99
2022-10-15T00:29:18.220Z,14.96
2022-10-15T00:30:18.210Z,15.07
2022-10-15T00:31:18.260Z,14.96
2022-10-15T00:32:18.190Z,14.88
2022-10-15T00:33:18.193Z,14.98
2022-10-15T00:34:18.176Z,14.83
2022-10-15T00:35:18.171Z,14.95
2022-10-15T00:36:19.168Z,14.92
2022-10-15T00:37:18.139Z,14.81
2022-10-15T00:38:18.137Z,14.84
2022-10-15T00:39:18.145Z,14.80
2022-10-15T00:40:18.117Z,14.89
2022-10-15T00:41:18.108Z,14.84
2022-10-15T00:42:18.087Z,14.84
2022-10-15T00:43:18.092Z,14.91
2022-10-15T00:44:18.112Z,14.81
2022-10-15T00:45:18.096Z,14.81
2022-10-15T00:46:18.063Z,14.84
2022-10-15T00:47:18.045Z,14.86
2022-10-15T00:48:18.076Z,14.83
2022-10-15T00:49:18.040Z,14.83
2022-10-15T00:50:18.020Z,14.80
2022-10-15T00:51:18.015Z,14.81
2022-10-15T00:52:18.023Z,14.78
2022-10-15T00:53:17.979Z,14.84
2022-10-15T00:54:17.973Z,14.84
2022-10-15T00:55:17.984Z,14.75
2022-10-15T00:56:17.976Z,14.83
2022-10-15T00:57:17.946Z,14.88
2022-10-15T00:58:17.965Z,14.96
2022-10-15T00:59:17.928Z,15.03
2022-10-15T01:00:17.948Z,15.02
2022-10-15T01:01:17.951Z,14.96
2022-10-15T01:02:17.898Z,15.01
2022-10-15T01:03:17.908Z,15.10
2022-10-15T01:04:17.877Z,15.02
2022-10-15T01:05:17.858Z,15.01
2022-10-15T01:06:17.881Z,15.11
2022-10-15T01:07:17.857Z,15.14
2022-10-15T01:08:17.838Z,15.14
2022-10-15T01:09:17.839Z,15.06
2022-10-15T01:10:17.812Z,15.06
2022-10-15T01:11:17.807Z,15.02
2022-10-15T01:12:17.797Z,15.02
2022-10-15T01:13:17.794Z,15.06
2022-10-15T01:14:17.773Z,15.06
2022-10-15T01:15:17.757Z,15.09
2022-10-15T01:16:17.810Z,15.07
2022-10-15T01:17:17.735Z,15.02
2022-10-15T01:18:18.738Z,15.10
2022-10-15T01:19:17.717Z,15.02
2022-10-15T01:20:17.704Z,15.06
2022-10-15T01:21:17.723Z,15.09
2022-10-15T01:22:17.684Z,15.11
2022-10-15T01:23:19.304Z,14.94
2022-10-15T01:24:17.670Z,15.11
2022-10-15T01:26:18.664Z,15.21
2022-10-15T01:27:17.649Z,15.11
2022-10-15T01:28:17.667Z,15.19
2022-10-15T01:29:17.654Z,15.14
2022-10-15T01:30:17.607Z,15.11
2022-10-15T01:31:17.623Z,15.13
2022-10-15T01:32:17.594Z,15.19
2022-10-15T01:33:17.579Z,15.11
2022-10-15T01:35:17.557Z,15.17
2022-10-15T01:36:17.574Z,15.14
2022-10-15T01:37:17.593Z,15.09
2022-10-15T01:38:17.532Z,15.02
2022-10-15T01:39:17.549Z,15.03
2022-10-15T01:40:17.521Z,14.98
2022-10-15T01:41:17.489Z,14.94
2022-10-15T01:42:17.503Z,14.84
2022-10-15T01:43:17.543Z,14.92
2022-10-15T01:44:17.472Z,14.77
2022-10-15T01:45:17.463Z,14.73
2022-10-15T01:46:17.457Z,14.86
2022-10-15T01:47:17.462Z,14.80
2022-10-15T01:48:17.436Z,14.83
2022-10-15T01:49:17.423Z,14.94
2022-10-15T01:50:17.422Z,14.92
2022-10-15T01:51:17.419Z,14.81
2022-10-15T01:52:17.431Z,14.78
2022-10-15T01:53:17.398Z,14.80
2022-10-15T01:54:17.373Z,14.89
2022-10-15T01:55:17.374Z,14.80
2022-10-15T01:56:17.369Z,14.86
2022-10-15T01:57:17.337Z,14.77
2022-10-15T01:58:17.332Z,14.88
2022-10-15T01:59:17.314Z,14.75
2022-10-15T02:00:17.329Z,14.83
2022-10-15T02:01:17.357Z,14.86
2022-10-15T02:02:17.298Z,14.75
2022-10-15T02:03:17.293Z,14.75
2022-10-15T02:04:17.286Z,14.69
2022-10-15T02:05:17.270Z,14.68
2022-10-15T02:06:17.255Z,14.69
2022-10-15T02:07:17.259Z,14.70
2022-10-15T02:08:17.237Z,14.68
2022-10-15T02:09:17.243Z,14.75
2022-10-15T02:10:17.233Z,14.69
2022-10-15T02:11:17.201Z,14.69
2022-10-15T02:12:17.214Z,14.64
2022-10-15T02:13:17.188Z,14.65
2022-10-15T02:14:17.176Z,14.68
2022-10-15T02:15:17.161Z,14.58
2022-10-15T02:16:17.150Z,14.60
2022-10-15T02:17:17.185Z,14.72
2022-10-15T02:18:17.133Z,14.57
2022-10-15T02:19:17.133Z,14.69
2022-10-15T02:20:17.111Z,14.68
2022-10-15T02:21:17.126Z,14.62
2022-10-15T02:22:17.082Z,14.65
2022-10-15T02:23:17.091Z,14.68
2022-10-15T02:24:17.068Z,14.75
2022-10-15T02:25:17.065Z,14.70
2022-10-15T02:26:17.069Z,14.72
2022-10-15T02:27:17.040Z,14.73
2022-10-15T02:28:17.052Z,14.73
2022-10-15T02:30:17.010Z,14.78
2022-10-15T02:31:17.010Z,14.80
2022-10-15T02:32:17.013Z,14.75
2022-10-15T02:33:16.982Z,14.80
2022-10-15T02:34:16.968Z,14.84
2022-10-15T02:35:16.957Z,14.81
2022-10-15T02:36:16.950Z,14.86
2022-10-15T02:37:16.954Z,14.80
2022-10-15T02:38:16.942Z,14.89
2022-10-15T02:39:20.346Z,14.84
2022-10-15T02:40:48.853Z,14.86
2022-10-15T02:41:16.969Z,14.83
2022-10-15T02:42:16.917Z,14.89
2022-10-15T02:43:16.908Z,14.89
2022-10-15T02:44:16.881Z,14.91
2022-10-15T02:45:16.883Z,14.83
2022-10-15T02:46:16.881Z,14.99
2022-10-15T02:47:16.885Z,14.98
2022-10-15T02:48:16.844Z,14.99
2022-10-15T02:49:16.867Z,14.92
2022-10-15T02:50:16.823Z,14.96
2022-10-15T02:51:16.820Z,15.03
2022-10-15T02:52:16.812Z,14.96
2022-10-15T02:53:16.820Z,15.03
2022-10-15T02:54:16.779Z,15.02
2022-10-15T02:55:16.783Z,15.06
2022-10-15T02:56:16.810Z,15.02
2022-10-15T02:57:16.775Z,14.98
2022-10-15T02:58:16.761Z,14.99
2022-10-15T02:59:16.750Z,14.99
2022-10-15T03:00:16.744Z,15.03
2022-10-15T03:01:16.766Z,14.94
2022-10-15T03:02:18.518Z,14.92
2022-10-15T03:03:17.732Z,14.95
2022-10-15T03:04:16.690Z,14.86
2022-10-15T03:05:16.706Z,14.89
2022-10-15T03:06:16.672Z,14.91
2022-10-15T03:07:16.665Z,14.95
2022-10-15T03:08:16.664Z,14.89
2022-10-15T03:09:16.621Z,14.91
2022-10-15T03:10:17.619Z,14.91
2022-10-15T03:11:16.614Z,14.83
2022-10-15T03:12:16.612Z,14.78
2022-10-15T03:13:16.614Z,14.78
2022-10-15T03:14:16.614Z,14.77
2022-10-15T03:15:16.566Z,14.73
2022-10-15T03:16:16.597Z,14.73
2022-10-15T03:17:16.564Z,14.78
2022-10-15T03:18:16.547Z,14.69
2022-10-15T03:19:16.536Z,14.73
2022-10-15T03:20:16.534Z,14.73
2022-10-15T03:21:16.547Z,14.64
2022-10-15T03:22:16.519Z,14.65
2022-10-15T03:23:16.495Z,14.62
2022-10-15T03:24:16.492Z,14.60
2022-10-15T03:25:16.474Z,14.60
2022-10-15T03:26:16.465Z,14.60
2022-10-15T03:27:16.466Z,14.58
2022-10-15T03:28:16.489Z,14.57
2022-10-15T03:29:16.435Z,14.60
2022-10-15T03:30:16.419Z,14.51
2022-10-15T03:31:16.424Z,14.55
2022-10-15T03:32:16.403Z,14.51
2022-10-15T03:33:16.412Z,14.57
2022-10-15T03:34:16.392Z,14.54
2022-10-15T03:35:16.375Z,14.68
2022-10-15T03:36:16.354Z,14.58
2022-10-15T03:37:16.347Z,14.50
2022-10-15T03:38:16.360Z,14.58
2022-10-15T03:39:16.356Z,14.55
2022-10-15T03:40:16.323Z,14.54
2022-10-15T03:41:16.309Z,14.62
2022-10-15T03:42:16.295Z,14.61
2022-10-15T03:43:16.276Z,14.54
2022-10-15T03:44:16.299Z,14.55
2022-10-15T03:45:16.264Z,14.54
2022-10-15T03:46:16.260Z,14.50
2022-10-15T03:47:16.258Z,14.50
2022-10-15T03:48:16.280Z,14.58
2022-10-15T03:49:16.241Z,14.43
2022-10-15T03:50:16.206Z,14.47
2022-10-15T03:51:19.978Z,14.55
2022-10-15T03:52:16.201Z,14.55
2022-10-15T03:53:16.176Z,14.57
2022-10-15T03:54:16.195Z,14.51
2022-10-15T03:55:16.187Z,14.51
2022-10-15T03:56:16.166Z,14.54
2022-10-15T03:57:16.186Z,14.65
2022-10-15T03:58:16.129Z,14.65
2022-10-15T03:59:16.119Z,14.73
2022-10-15T04:00:16.116Z,14.78
2022-10-15T04:01:16.135Z,14.75
2022-10-15T04:02:16.138Z,14.77
2022-10-15T04:03:16.069Z,14.75
2022-10-15T04:04:16.091Z,14.78
2022-10-15T04:05:16.078Z,14.69
2022-10-15T04:06:16.066Z,14.61
2022-10-15T04:07:16.051Z,14.73
2022-10-15T04:08:16.055Z,14.69
2022-10-15T04:09:16.041Z,14.78
2022-10-15T04:10:16.011Z,14.77
2022-10-15T04:11:16.009Z,14.69
2022-10-15T04:12:15.999Z,14.77
2022-10-15T04:13:16.016Z,14.83
2022-10-15T04:14:15.977Z,14.89
2022-10-15T04:15:15.992Z,14.86
2022-10-15T04:16:15.964Z,14.84
2022-10-15T04:17:15.972Z,14.91
2022-10-15T04:18:15.958Z,14.92
2022-10-15T04:19:15.933Z,14.96
2022-10-15T04:20:15.943Z,14.98
2022-10-15T04:21:15.938Z,14.95
2022-10-15T04:22:15.892Z,14.94
2022-10-15T04:23:15.900Z,14.94
2022-10-15T04:24:15.874Z,14.88
2022-10-15T04:25:15.883Z,14.89
2022-10-15T04:26:15.879Z,14.86
2022-10-15T04:28:15.840Z,14.81
2022-10-15T04:29:15.816Z,14.86
2022-10-15T04:30:15.809Z,14.78
2022-10-15T04:31:15.825Z,14.84
2022-10-15T04:32:15.795Z,14.95
2022-10-15T04:33:15.785Z,14.92
2022-10-15T04:34:15.763Z,14.89
2022-10-15T04:35:15.754Z,14.92
2022-10-15T04:37:15.754Z,14.92
2022-10-15T04:38:15.723Z,14.95
2022-10-15T04:39:15.737Z,14.95
2022-10-15T04:40:15.703Z,14.91
2022-10-15T04:41:15.693Z,14.96
2022-10-15T04:42:15.696Z,14.88
2022-10-15T04:43:15.678Z,14.99
2022-10-15T04:44:15.669Z,14.95
2022-10-15T04:45:15.725Z,15.02
2022-10-15T04:46:15.687Z,15.07
2022-10-15T04:47:15.653Z,15.06
2022-10-15T04:48:15.629Z,15.02
2022-10-15T04:49:15.622Z,14.99
2022-10-15T04:50:15.633Z,15.01
2022-10-15T04:51:15.611Z,15.02
2022-10-15T04:52:15.580Z,15.11
2022-10-15T04:53:15.589Z,15.10
2022-10-15T04:54:15.614Z,15.03
2022-10-15T04:55:15.572Z,15.14
2022-10-15T04:56:15.555Z,15.11
2022-10-15T04:57:15.556Z,15.13
2022-10-15T04:58:15.529Z,15.13
2022-10-15T04:59:15.520Z,15.14
2022-10-15T05:00:15.545Z,15.10
2022-10-15T05:01:15.502Z,15.10
2022-10-15T05:02:15.525Z,15.16
2022-10-15T05:03:15.476Z,15.11
2022-10-15T05:04:15.467Z,15.17
2022-10-15T05:05:15.488Z,15.21
2022-10-15T05:06:15.453Z,15.23
2022-10-15T05:07:15.436Z,15.25
2022-10-15T05:08:15.437Z,15.25
2022-10-15T05:09:15.423Z,15.25
2022-10-15T05:10:15.428Z,15.29
2022-10-15T05:11:15.386Z,15.17
2022-10-15T05:12:15.395Z,15.19
2022-10-15T05:13:15.392Z,15.19
2022-10-15T05:14:15.370Z,15.20
2022-10-15T05:15:15.370Z,15.23
2022-10-15T05:16:15.354Z,15.17
2022-10-15T05:17:15.351Z,15.19
2022-10-15T05:18:15.325Z,15.13
2022-10-15T05:19:15.310Z,15.09
2022-10-15T05:20:15.332Z,15.16
2022-10-15T05:21:15.312Z,15.14
2022-10-15T05:22:15.287Z,15.06
2022-10-15T05:23:15.273Z,14.99
2022-10-15T05:24:15.281Z,14.99
2022-10-15T05:25:15.288Z,15.02
2022-10-15T05:26:15.248Z,15.03
2022-10-15T05:27:15.224Z,14.98
2022-10-15T05:28:15.235Z,15.01
2022-10-15T05:29:15.229Z,14.98
2022-10-15T05:30:15.229Z,14.86
2022-10-15T05:31:18.846Z,14.95
2022-10-15T05:32:16.213Z,14.89
2022-10-15T05:33:15.174Z,14.81
2022-10-15T05:34:15.189Z,14.75
2022-10-15T05:35:15.158Z,14.89
2022-10-15T05:36:15.154Z,14.75
2022-10-15T05:37:15.142Z,14.72
2022-10-15T05:38:15.140Z,14.80
2022-10-15T05:39:15.174Z,14.84
2022-10-15T05:40:19.619Z,14.89
2022-10-15T05:41:16.099Z,14.77
2022-10-15T05:42:15.080Z,14.78
2022-10-15T05:43:15.071Z,14.77
2022-10-15T05:44:15.089Z,14.83
2022-10-15T05:45:15.056Z,14.91
2022-10-15T05:46:15.045Z,14.78
2022-10-15T05:47:15.068Z,14.78
2022-10-15T05:48:15.019Z,14.81
2022-10-15T05:49:16.014Z,14.78
2022-10-15T05:50:14.996Z,14.75
2022-10-15T05:51:15.000Z,14.73
2022-10-15T05:52:15.008Z,14.73
2022-10-15T05:53:14.981Z,14.75
2022-10-15T05:54:14.972Z,14.70
2022-10-15T05:55:14.952Z,14.77
2022-10-15T05:56:14.967Z,14.68
2022-10-15T05:57:14.921Z,14.72
2022-10-15T05:58:14.931Z,14.62
2022-10-15T05:59:14.913Z,14.68
2022-10-15T06:00:14.894Z,14.68
2022-10-15T06:01:14.913Z,14.60
2022-10-15T06:02:14.923Z,14.64
2022-10-15T06:03:14.870Z,14.61
2022-10-15T06:04:14.876Z,14.69
2022-10-15T06:05:14.851Z,14.65
2022-10-15T06:06:14.864Z,14.70
2022-10-15T06:07:14.830Z,14.61
2022-10-15T06:08:14.816Z,14.64
2022-10-15T06:09:14.814Z,14.58
2022-10-15T06:10:14.821Z,14.52
2022-10-15T06:11:14.797Z,14.55
2022-10-15T06:12:14.804Z,14.62
2022-10-15T06:13:14.861Z,14.52
2022-10-15T06:14:14.781Z,14.61
2022-10-15T06:15:14.768Z,14.64
2022-10-15T06:16:16.670Z,14.60
2022-10-15T06:17:14.744Z,14.62
2022-10-15T06:18:14.745Z,14.68
2022-10-15T06:19:14.739Z,14.58
2022-10-15T06:20:14.702Z,14.60
2022-10-15T06:21:14.690Z,14.60
2022-10-15T06:22:14.684Z,14.58
2022-10-15T06:23:14.675Z,14.64
2022-10-15T06:24:14.675Z,14.61
2022-10-15T06:25:14.650Z,14.62
2022-10-15T06:26:14.652Z,14.70
2022-10-15T06:27:14.643Z,14.61
2022-10-15T06:28:14.627Z,14.64
2022-10-15T06:29:14.635Z,14.75
2022-10-15T06:30:14.606Z,14.72
2022-10-15T06:31:14.601Z,14.70
2022-10-15T06:32:14.586Z,14.75
2022-10-15T06:33:14.576Z,14.65
2022-10-15T06:34:14.591Z,14.68
2022-10-15T06:35:14.562Z,14.58
2022-10-15T06:36:14.542Z,14.68
2022-10-15T06:37:14.537Z,14.69
2022-10-15T06:38:14.531Z,14.68
2022-10-15T06:39:14.512Z,14.65
2022-10-15T06:40:14.523Z,14.75
2022-10-15T06:41:14.491Z,14.72
2022-10-15T06:42:14.533Z,14.81
2022-10-15T06:43:14.488Z,14.77
2022-10-15T06:44:14.457Z,14.81
2022-10-15T06:45:16.922Z,14.70
2022-10-15T06:46:15.451Z,14.77
2022-10-15T06:47:14.425Z,14.73
2022-10-15T06:48:14.453Z,14.73
2022-10-15T06:49:14.422Z,14.78
2022-10-15T06:50:14.399Z,14.69
2022-10-15T06:51:14.388Z,14.77
2022-10-15T06:52:14.377Z,14.69
2022-10-15T06:53:14.379Z,14.80
2022-10-15T06:54:14.364Z,14.78
2022-10-15T06:55:14.343Z,14.77
2022-10-15T06:56:14.366Z,14.83
2022-10-15T06:57:14.348Z,14.81
2022-10-15T06:58:14.319Z,14.92
2022-10-15T06:59:14.319Z,14.86
2022-10-15T07:00:14.297Z,14.89
2022-10-15T07:01:14.315Z,14.95
2022-10-15T07:02:14.298Z,15.01
2022-10-15T07:03:14.283Z,14.98
2022-10-15T07:04:14.261Z,15.01
2022-10-15T07:05:14.252Z,15.10
2022-10-15T07:06:14.262Z,14.96
2022-10-15T07:07:14.255Z,14.99
2022-10-15T07:08:18.432Z,14.99
2022-10-15T07:09:14.203Z,15.07
2022-10-15T07:10:14.235Z,14.99
2022-10-15T07:11:14.206Z,15.02
2022-10-15T07:12:14.188Z,15.10
2022-10-15T07:13:14.195Z,14.96
2022-10-15T07:14:14.161Z,14.98
2022-10-15T07:15:14.157Z,15.02
2022-10-15T07:16:14.178Z,15.03
2022-10-15T07:17:14.132Z,14.96
2022-10-15T07:18:14.138Z,15.03
2022-10-15T07:19:14.117Z,15.03
2022-10-15T07:20:14.093Z,15.09
2022-10-15T07:21:14.093Z,14.99
2022-10-15T07:22:14.079Z,15.01
2022-10-15T07:23:14.059Z,15.03
2022-10-15T07:24:14.090Z,15.10
2022-10-15T07:25:14.060Z,15.19
2022-10-15T07:26:14.041Z,15.10
2022-10-15T07:27:20.871Z,15.11
2022-10-15T07:28:16.037Z,15.09
2022-10-15T07:29:14.012Z,15.09
2022-10-15T07:30:14.021Z,15.07
2022-10-15T07:31:13.990Z,15.10
2022-10-15T07:32:14.982Z,15.09
2022-10-15T07:33:13.967Z,14.98
2022-10-15T07:34:13.940Z,14.95
2022-10-15T07:35:13.979Z,14.94
2022-10-15T07:36:13.938Z,14.95
2022-10-15T07:37:13.945Z,14.96
2022-10-15T07:38:13.931Z,14.86
2022-10-15T07:39:13.918Z,14.89
2022-10-15T07:40:13.893Z,14.96
2022-10-15T07:41:13.906Z,14.99
2022-10-15T07:43:13.885Z,14.98
2022-10-15T07:44:13.883Z,14.98
2022-10-15T07:45:13.841Z,15.09
2022-10-15T07:46:13.836Z,15.06
2022-10-15T07:47:13.816Z,15.07
2022-10-15T07:48:13.850Z,15.07
2022-10-15T07:49:13.851Z,15.01
2022-10-15T07:50:13.861Z,15.07
2022-10-15T07:51:13.800Z,15.07
2022-10-15T07:52:13.776Z,15.19
2022-10-15T07:53:13.769Z,15.17
2022-10-15T07:54:13.745Z,15.28
2022-10-15T07:55:13.766Z,15.23
2022-10-15T07:56:13.761Z,15.31
2022-10-15T07:57:13.724Z,15.25
2022-10-15T07:58:13.724Z,15.25
2022-10-15T07:59:13.782Z,15.23
2022-10-15T08:00:13.706Z,15.25
2022-10-15T08:01:13.685Z,15.21
2022-10-15T08:02:13.722Z,15.20
2022-10-15T08:03:13.668Z,15.23
2022-10-15T08:04:13.661Z,15.21
2022-10-15T08:05:13.655Z,15.29
2022-10-15T08:06:13.746Z,15.25
2022-10-15T08:07:17.336Z,15.27
2022-10-15T08:08:13.644Z,15.28
2022-10-15T08:09:13.614Z,15.35
2022-10-15T08:10:13.613Z,15.21
2022-10-15T08:11:13.586Z,15.21
2022-10-15T08:12:13.592Z,15.27
2022-10-15T08:13:13.604Z,15.17
2022-10-15T08:14:13.564Z,15.20
2022-10-15T08:15:13.546Z,15.17
2022-10-15T08:16:13.717Z,15.20
2022-10-15T08:17:13.520Z,15.16
2022-10-15T08:18:13.545Z,15.19
2022-10-15T08:19:13.544Z,15.20
2022-10-15T08:20:13.534Z,15.19
2022-10-15T08:21:13.482Z,15.19
2022-10-15T08:22:13.480Z,15.25
2022-10-15T08:23:13.471Z,15.14
2022-10-15T08:24:13.472Z,15.19
2022-10-15T08:25:13.455Z,15.19
2022-10-15T08:26:13.428Z,15.27
2022-10-15T08:27:13.443Z,15.41
2022-10-15T08:28:13.464Z,15.34
2022-10-15T08:29:13.415Z,15.57
2022-10-15T08:30:13.391Z,15.62
2022-10-15T08:31:13.381Z,15.67
2022-10-15T08:32:13.372Z,15.74
2022-10-15T08:33:13.376Z,15.86
2022-10-15T08:34:13.348Z,15.90
2022-10-15T08:35:13.336Z,16.05
2022-10-15T08:36:13.356Z,16.05
2022-10-15T08:38:16.129Z,16.05
2022-10-15T08:39:13.305Z,16.25
2022-10-15T08:40:46.231Z,16.41
2022-10-15T08:41:13.534Z,16.45
2022-10-15T08:42:13.268Z,16.63
2022-10-15T08:43:13.251Z,16.71
2022-10-15T08:44:13.265Z,16.81
2022-10-15T08:45:13.244Z,16.85
2022-10-15T08:46:13.243Z,16.86
2022-10-15T08:47:13.249Z,16.97
2022-10-15T08:48:13.211Z,17.07
2022-10-15T08:49:13.212Z,17.23
2022-10-15T08:50:13.196Z,17.25
2022-10-15T08:51:13.198Z,17.44
2022-10-15T08:52:13.206Z,17.51
2022-10-15T08:53:13.176Z,17.36
2022-10-15T08:54:13.148Z,17.26
2022-10-15T08:55:13.184Z,17.21
2022-10-15T08:56:13.150Z,17.11
2022-10-15T08:57:13.123Z,16.97
2022-10-15T08:58:13.115Z,16.93
2022-10-15T08:59:13.116Z,16.93
2022-10-15T09:00:13.100Z,16.91
2022-10-15T09:01:13.091Z,16.83
2022-10-15T09:02:13.083Z,16.81
2022-10-15T09:03:13.090Z,16.71
2022-10-15T09:04:13.075Z,16.75
2022-10-15T09:05:13.049Z,16.81
2022-10-15T09:06:13.044Z,16.97
2022-10-15T09:07:13.032Z,16.94
2022-10-15T09:08:13.015Z,17.16
2022-10-15T09:09:13.042Z,17.07
2022-10-15T09:10:13.000Z,17.01
2022-10-15T09:11:12.987Z,17.00
2022-10-15T09:12:12.978Z,16.93
2022-10-15T09:13:16.401Z,16.98
2022-10-15T09:14:12.970Z,16.86
2022-10-15T09:15:12.947Z,16.88
2022-10-15T09:16:12.983Z,16.98
2022-10-15T09:17:12.931Z,17.00
2022-10-15T09:18:12.933Z,16.98
2022-10-15T09:19:12.918Z,17.01
2022-10-15T09:20:12.915Z,17.15
2022-10-15T09:21:12.902Z,17.06
2022-10-15T09:22:12.877Z,17.06
2022-10-15T09:23:12.893Z,17.38
2022-10-15T09:24:12.863Z,17.68
2022-10-15T09:25:12.853Z,17.86
2022-10-15T09:26:12.836Z,17.92
2022-10-15T09:27:12.853Z,17.82
2022-10-15T09:28:12.827Z,17.78
2022-10-15T09:29:12.839Z,17.63
2022-10-15T09:30:12.800Z,17.46
2022-10-15T09:31:12.785Z,17.51
2022-10-15T09:32:12.790Z,17.40
2022-10-15T09:33:12.776Z,17.31
2022-10-15T09:34:12.786Z,17.19
2022-10-15T09:35:12.758Z,17.16
2022-10-15T09:36:12.732Z,17.06
2022-10-15T09:37:12.730Z,16.97
2022-10-15T09:38:12.721Z,17.06
2022-10-15T09:39:12.706Z,16.93
2022-10-15T09:40:12.725Z,16.89
2022-10-15T09:41:12.753Z,16.86
2022-10-15T09:42:12.680Z,16.75
2022-10-15T09:43:12.682Z,16.83
2022-10-15T09:44:12.672Z,16.81
2022-10-15T09:45:12.677Z,16.76
2022-10-15T09:46:12.647Z,16.83
2022-10-15T09:47:12.661Z,16.81
2022-10-15T09:48:12.648Z,16.78
2022-10-15T09:49:12.613Z,16.76
2022-10-15T09:50:12.644Z,16.82
2022-10-15T09:51:12.600Z,16.88
2022-10-15T09:52:12.594Z,16.89
2022-10-15T09:53:12.606Z,16.91
2022-10-15T09:54:12.572Z,16.75
2022-10-15T09:55:12.560Z,16.79
2022-10-15T09:56:12.571Z,16.89
2022-10-15T09:57:12.552Z,16.93
2022-10-15T09:58:12.567Z,16.94
2022-10-15T09:59:12.536Z,17.00
2022-10-15T10:00:12.518Z,17.16
2022-10-15T10:01:12.505Z,17.25
2022-10-15T10:02:12.520Z,17.28
2022-10-15T10:03:12.482Z,17.26
2022-10-15T10:04:12.501Z,17.26
2022-10-15T10:05:12.466Z,17.31
2022-10-15T10:06:12.475Z,17.26
2022-10-15T10:07:12.453Z,17.41
2022-10-15T10:08:12.421Z,17.44
2022-10-15T10:09:12.457Z,17.56
2022-10-15T10:10:12.436Z,17.75
2022-10-15T10:11:12.401Z,18.07
2022-10-15T10:12:12.385Z,18.41
2022-10-15T10:13:12.393Z,18.51
2022-10-15T10:14:12.376Z,18.75
2022-10-15T10:15:12.386Z,18.92
2022-10-15T10:16:12.364Z,18.69
2022-10-15T10:17:12.341Z,18.73
2022-10-15T10:18:12.331Z,18.66
2022-10-15T10:19:12.319Z,18.67
2022-10-15T10:20:12.354Z,18.52
2022-10-15T10:21:12.301Z,18.50
2022-10-15T10:22:12.316Z,18.37
2022-10-15T10:23:12.285Z,18.29
2022-10-15T10:24:12.275Z,18.27
2022-10-15T10:25:12.293Z,18.27
2022-10-15T10:26:12.276Z,18.17
2022-10-15T10:27:12.240Z,18.35
2022-10-15T10:28:12.241Z,18.26
2022-10-15T10:29:22.299Z,18.20
2022-10-15T10:30:13.218Z,18.14
2022-10-15T10:31:12.220Z,18.39
2022-10-15T10:32:12.199Z,18.57
2022-10-15T10:33:12.204Z,18.69
2022-10-15T10:34:12.196Z,18.85
2022-10-15T10:35:12.193Z,19.10
2022-10-15T10:36:12.160Z,19.08
2022-10-15T10:37:12.173Z,19.18
2022-10-15T10:38:12.135Z,19.28
2022-10-15T10:39:12.127Z,19.37
2022-10-15T10:40:12.134Z,19.32
2022-10-15T10:41:12.141Z,19.23
2022-10-15T10:42:12.103Z,19.25
2022-10-15T10:43:12.133Z,19.32
2022-10-15T10:44:12.084Z,19.04
2022-10-15T10:45:14.041Z,18.87
2022-10-15T10:46:13.075Z,19.02
2022-10-15T10:47:12.069Z,18.87
2022-10-15T10:48:12.076Z,18.80
2022-10-15T10:49:12.064Z,18.85
2022-10-15T10:50:12.028Z,18.69
2022-10-15T10:51:13.043Z,18.98
2022-10-15T10:52:12.014Z,18.87
2022-10-15T10:53:11.997Z,18.76
2022-10-15T10:54:11.995Z,18.58
2022-10-15T10:55:11.976Z,18.39
2022-10-15T10:56:11.980Z,18.62
2022-10-15T10:57:11.961Z,18.63
2022-10-15T10:58:11.952Z,18.66
2022-10-15T10:59:12.112Z,18.54
2022-10-15T11:00:11.922Z,18.65
2022-10-15T11:01:11.963Z,18.67
2022-10-15T11:02:11.929Z,18.72
2022-10-15T11:03:11.913Z,18.67
2022-10-15T11:04:14.144Z,18.73
2022-10-15T11:05:12.896Z,18.72
2022-10-15T11:06:11.870Z,18.92
2022-10-15T11:07:11.879Z,19.06
2022-10-15T11:08:11.852Z,19.10
2022-10-15T11:09:11.859Z,19.07
2022-10-15T11:10:11.851Z,19.00
2022-10-15T11:11:11.845Z,18.87
2022-10-15T11:12:11.810Z,18.76
2022-10-15T11:14:11.800Z,18.62
2022-10-15T11:15:11.802Z,18.67
2022-10-15T11:16:11.818Z,18.70
2022-10-15T11:17:11.777Z,18.67
2022-10-15T11:18:11.800Z,18.82
2022-10-15T11:19:19.026Z,18.92
2022-10-15T11:20:29.197Z,18.95
2022-10-15T11:21:13.736Z,18.94
2022-10-15T11:22:11.732Z,18.70
2022-10-15T11:23:11.762Z,18.84
2022-10-15T11:24:11.721Z,18.69
2022-10-15T11:25:11.708Z,18.66
2022-10-15T11:26:11.686Z,18.72
2022-10-15T11:27:11.930Z,18.78
2022-10-15T11:28:11.693Z,18.76
2022-10-15T11:29:11.644Z,18.66
2022-10-15T11:30:11.652Z,18.67
2022-10-15T11:31:11.713Z,18.72
2022-10-15T11:32:15.227Z,18.60
2022-10-15T11:33:13.864Z,18.67
2022-10-15T11:34:11.622Z,18.55
2022-10-15T11:35:16.913Z,18.42
2022-10-15T11:36:12.592Z,18.36
2022-10-15T11:37:11.600Z,18.29
2022-10-15T11:38:11.567Z,18.26
2022-10-15T11:39:11.580Z,18.29
2022-10-15T11:40:11.553Z,18.20
2022-10-15T11:41:11.542Z,18.25
2022-10-15T11:42:11.530Z,18.18
2022-10-15T11:43:11.541Z,18.21
2022-10-15T11:44:11.521Z,18.25
2022-10-15T11:45:11.511Z,18.27
2022-10-15T11:46:11.525Z,18.11
2022-10-15T11:47:11.486Z,18.25
2022-10-15T11:48:11.475Z,18.10
2022-10-15T11:49:11.453Z,18.08
2022-10-15T11:50:11.455Z,18.07
2022-10-15T11:51:11.468Z,17.97
2022-10-15T11:52:11.446Z,17.92
2022-10-15T11:53:11.429Z,17.82
2022-10-15T11:54:11.413Z,17.77
2022-10-15T11:55:11.428Z,17.68
2022-10-15T11:56:11.397Z,17.68
2022-10-15T11:57:11.446Z,17.68
2022-10-15T11:58:11.373Z,17.77
2022-10-15T11:59:11.371Z,17.79
2022-10-15T12:00:11.365Z,17.74
2022-10-15T12:01:11.396Z,17.81
2022-10-15T12:02:11.338Z,17.93
2022-10-15T12:03:11.342Z,17.95
2022-10-15T12:04:11.453Z,17.81
2022-10-15T12:05:11.309Z,17.84
2022-10-15T12:06:11.307Z,17.82
2022-10-15T12:07:11.296Z,17.79
2022-10-15T12:08:11.285Z,17.86
2022-10-15T12:09:11.280Z,17.81
2022-10-15T12:10:11.248Z,17.77
2022-10-15T12:11:11.265Z,17.72
2022-10-15T12:12:11.256Z,17.66
2022-10-15T12:13:11.217Z,17.75
2022-10-15T12:14:11.236Z,17.78
2022-10-15T12:15:11.203Z,17.92
2022-10-15T12:16:11.199Z,17.87
2022-10-15T12:17:11.193Z,17.93
2022-10-15T12:18:11.200Z,17.75
2022-10-15T12:19:11.166Z,17.71
2022-10-15T12:20:12.166Z,17.66
2022-10-15T12:21:11.169Z,17.64
2022-10-15T12:22:11.148Z,17.58
2022-10-15T12:23:11.159Z,17.58
2022-10-15T12:24:11.116Z,17.68
2022-10-15T12:25:11.107Z,17.66
2022-10-15T12:26:11.129Z,17.71
2022-10-15T12:27:11.122Z,17.70
2022-10-15T12:28:11.095Z,17.79
2022-10-15T12:29:11.080Z,17.66
2022-10-15T12:30:11.059Z,17.77
2022-10-15T12:31:11.051Z,17.70
2022-10-15T12:32:11.037Z,17.68
2022-10-15T12:33:11.041Z,17.77
2022-10-15T12:34:12.019Z,17.62
2022-10-15T12:35:12.057Z,17.63
2022-10-15T12:36:11.007Z,17.68
2022-10-15T12:37:11.012Z,17.63
2022-10-15T12:38:10.969Z,17.66
2022-10-15T12:39:17.613Z,17.58
2022-10-15T12:40:13.025Z,17.68
2022-10-15T12:41:10.997Z,17.56
2022-10-15T12:42:10.931Z,17.66
2022-10-15T12:43:10.920Z,17.75
2022-10-15T12:44:10.916Z,17.68
2022-10-15T12:45:10.905Z,17.71
2022-10-15T12:46:10.930Z,17.71
2022-10-15T12:47:10.878Z,17.66
2022-10-15T12:48:10.872Z,17.70
2022-10-15T12:49:10.900Z,17.66
2022-10-15T12:50:10.866Z,17.77
2022-10-15T12:51:10.888Z,17.77
2022-10-15T12:52:10.839Z,17.72
2022-10-15T12:53:10.846Z,17.74
2022-10-15T12:54:10.828Z,17.72
2022-10-15T12:55:10.806Z,17.68
2022-10-15T12:56:10.810Z,17.58
2022-10-15T12:57:10.801Z,17.64
2022-10-15T12:58:10.792Z,17.63
2022-10-15T12:59:10.777Z,17.72
2022-10-15T13:00:10.752Z,17.84